Time;durP1;ratioP1;P1;durP2;ratioP2;P2;SDS_P1;SDS_P2;PMS_P1;PMS_P2;Temp;Humidity;BMP_temperature;BMP_pressure;BME280_temperature;BME280_humidity;BME280_pressure;Samples;Min_cycle;Max_cycle;Signal;HPM_P1;HPM_P2
2021/12/22 00:00:20;;;;;;;58.95;22.95;;;;;;;-5.19;100.00;102566.00;5180614;28;20041;-74
2021/12/22 00:02:51;;;;;;;53.58;22.20;;;;;;;-5.22;100.00;102572.16;5177283;28;20092;-74
2021/12/22 00:05:26;;;;;;;61.65;25.08;;;;;;;-5.23;100.00;102566.03;5179874;28;20482;-74
2021/12/22 00:07:57;;;;;;;56.47;23.67;;;;;;;-5.24;100.00;102566.94;5180392;28;20034;-74
2021/12/22 00:10:28;;;;;;;54.50;23.10;;;;;;;-5.27;100.00;102559.16;5180715;28;20018;-74
2021/12/22 00:12:58;;;;;;;57.45;23.13;;;;;;;-5.28;100.00;102562.63;5180598;28;20399;-74
2021/12/22 00:15:29;;;;;;;68.97;25.05;;;;;;;-5.28;100.00;102564.38;5179839;28;20032;-74
2021/12/22 00:18:01;;;;;;;63.72;25.55;;;;;;;-5.30;100.00;102559.19;5180368;28;20032;-75
2021/12/22 00:20:31;;;;;;;64.13;25.77;;;;;;;-5.31;100.00;102554.84;5180345;28;20537;-75
2021/12/22 00:23:02;;;;;;;67.72;27.85;;;;;;;-5.30;100.00;102546.09;5180671;28;20034;-74
2021/12/22 00:25:32;;;;;;;65.57;28.15;;;;;;;-5.28;100.00;102551.31;5162589;28;20667;-75
2021/12/22 00:28:03;;;;;;;75.53;27.02;;;;;;;-5.28;100.00;102540.84;5179999;28;20026;-75
2021/12/22 00:30:36;;;;;;;73.30;27.70;;;;;;;-5.28;100.00;102541.69;5180372;28;20466;-75
2021/12/22 00:33:10;;;;;;;67.55;27.60;;;;;;;-5.28;100.00;102538.22;5152673;28;20079;-74
2021/12/22 00:35:44;;;;;;;72.15;28.75;;;;;;;-5.30;100.00;102548.72;5146296;28;20116;-72
2021/12/22 00:38:17;;;;;;;78.07;29.13;;;;;;;-5.30;100.00;102550.47;5162827;28;20113;-74
2021/12/22 00:40:48;;;;;;;66.18;26.92;;;;;;;-5.31;100.00;102543.53;5177337;28;20021;-74
2021/12/22 00:43:19;;;;;;;59.92;27.13;;;;;;;-5.33;100.00;102538.28;5163008;28;20028;-74
2021/12/22 00:45:55;;;;;;;65.35;26.38;;;;;;;-5.35;100.00;102539.22;5179795;28;20149;-74
2021/12/22 00:48:26;;;;;;;66.72;26.92;;;;;;;-5.39;100.00;102545.38;5162766;28;20084;-74
2021/12/22 00:50:57;;;;;;;63.35;26.83;;;;;;;-5.41;100.00;102537.56;5179482;28;20026;-74
2021/12/22 00:53:28;;;;;;;67.32;26.75;;;;;;;-5.43;100.00;102534.09;5180040;28;20030;-74
2021/12/22 00:55:58;;;;;;;60.95;26.60;;;;;;;-5.44;100.00;102536.72;5181560;28;20022;-74
2021/12/22 00:58:29;;;;;;;76.03;28.63;;;;;;;-5.44;100.00;102539.34;5179789;28;20041;-74
2021/12/22 01:00:59;;;;;;;76.85;28.90;;;;;;;-5.45;100.00;102541.09;5179655;28;20065;-74
2021/12/22 01:03:30;;;;;;;69.20;28.10;;;;;;;-5.49;100.00;102537.66;5175302;28;20380;-74
2021/12/22 01:06:02;;;;;;;73.32;30.17;;;;;;;-5.51;100.00;102539.44;5179444;28;20421;-74
2021/12/22 01:08:33;;;;;;;69.97;29.63;;;;;;;-5.53;100.00;102543.81;5179819;28;20030;-74
2021/12/22 01:11:05;;;;;;;69.65;28.80;;;;;;;-5.54;100.00;102536.88;5179399;28;20413;-74
2021/12/22 01:13:36;;;;;;;69.18;27.77;;;;;;;-5.54;100.00;102543.84;5161970;28;20056;-74
2021/12/22 01:16:06;;;;;;;71.60;28.63;;;;;;;-5.53;100.00;102542.97;5182526;28;20030;-74
2021/12/22 01:18:37;;;;;;;66.55;28.55;;;;;;;-5.52;100.00;102542.09;5183974;28;20571;-74
2021/12/22 01:21:16;;;;;;;68.40;29.42;;;;;;;-5.53;100.00;102535.97;5183912;28;20030;-74
2021/12/22 01:26:41;;;;;;;77.00;29.55;;;;;;;-5.54;100.00;102542.09;5183763;28;20022;-74
2021/12/22 01:29:13;;;;;;;66.97;26.63;;;;;;;-5.51;100.00;102533.34;5184197;28;20386;-74
2021/12/22 01:31:45;;;;;;;78.13;28.83;;;;;;;-5.49;100.00;102539.41;5165869;28;20022;-74
2021/12/22 01:34:15;;;;;;;78.00;29.17;;;;;;;-5.51;100.00;102534.22;5183404;28;20026;-74
2021/12/22 01:36:46;;;;;;;74.10;28.45;;;;;;;-5.51;100.00;102530.75;5183231;28;20026;-74
2021/12/22 01:39:16;;;;;;;68.38;28.77;;;;;;;-5.53;100.00;102530.75;5178875;28;20068;-74
2021/12/22 01:41:47;;;;;;;76.80;28.95;;;;;;;-5.55;100.00;102532.53;5181414;28;20029;-75
2021/12/22 01:44:45;;;;;;;67.10;27.90;;;;;;;-5.57;100.00;102536.94;5183099;28;20108;-74
2021/12/22 01:50:09;;;;;;;85.55;31.08;;;;;;;-5.61;100.00;102537.00;5183551;28;20498;-74
2021/12/22 01:52:40;;;;;;;66.28;28.77;;;;;;;-5.63;100.00;102541.34;5183298;28;20033;-75
2021/12/22 01:55:25;;;;;;;63.45;28.25;;;;;;;-5.63;100.00;102543.97;5165382;28;20509;-72
2021/12/22 01:57:59;;;;;;;;;;;;;;;-5.68;100.00;102544.03;5183907;28;20029;-73
2021/12/22 02:00:29;;;;;;;67.63;27.85;;;;;;;-5.73;100.00;102549.31;5183414;28;19963;-74
2021/12/22 02:03:00;;;;;;;73.97;26.67;;;;;;;-5.78;100.00;102543.28;5183288;28;20030;-75
2021/12/22 02:05:31;;;;;;;69.70;27.63;;;;;;;-5.81;100.00;102545.09;5174790;28;20034;-74
2021/12/22 02:08:06;;;;;;;68.65;27.73;;;;;;;-5.83;100.00;102541.63;5183019;28;20380;-75
2021/12/22 02:10:40;;;;;;;77.93;28.40;;;;;;;-5.84;100.00;102543.38;5183574;28;20057;-74
2021/12/22 02:13:15;;;;;;;80.47;29.48;;;;;;;-5.86;100.00;102542.56;5183510;28;20092;-74
2021/12/22 02:15:47;;;;;;;70.15;27.55;;;;;;;-5.87;100.00;102535.59;5183090;28;20022;-74
2021/12/22 02:18:21;;;;;;;74.65;28.75;;;;;;;-5.84;100.00;102545.13;5183152;28;20040;-74
2021/12/22 02:20:54;;;;;;;67.05;27.13;;;;;;;-5.80;100.00;102552.06;5183021;28;20018;-74
2021/12/22 02:23:40;;;;;;;62.25;27.50;;;;;;;-5.78;100.00;102551.13;5182943;28;20060;-75
2021/12/22 02:29:04;;;;;;;75.78;28.80;;;;;;;-5.70;100.00;102545.81;5182727;28;20033;-75
2021/12/22 02:31:41;;;;;;;67.25;28.00;;;;;;;-5.70;100.00;102545.81;5178858;28;20069;-75
2021/12/22 02:34:15;;;;;;;77.68;28.92;;;;;;;-5.68;100.00;102540.56;5182681;28;20032;-75
2021/12/22 02:36:45;;;;;;;79.00;29.30;;;;;;;-5.67;100.00;102542.28;5182998;28;20117;-75
2021/12/22 02:39:16;;;;;;;65.28;27.60;;;;;;;-5.69;100.00;102541.44;5161453;28;20168;-74
2021/12/22 02:41:46;;;;;;;70.25;27.63;;;;;;;-5.72;100.00;102545.00;5182637;28;20029;-74
2021/12/22 02:44:17;;;;;;;71.45;28.58;;;;;;;-5.75;100.00;102537.19;5182167;28;20539;-75
2021/12/22 02:46:59;;;;;;;61.72;25.75;;;;;;;-5.80;100.00;102542.47;5182732;28;20381;-74
2021/12/22 02:49:29;;;;;;;64.03;25.90;;;;;;;-5.82;100.00;102539.03;5164905;28;20343;-74
2021/12/22 02:52:04;;;;;;;67.90;27.67;;;;;;;-5.84;100.00;102546.00;5182526;28;20490;-74
2021/12/22 02:54:41;;;;;;;66.65;26.77;;;;;;;-5.85;100.00;102543.41;5175787;28;20018;-75
2021/12/22 03:00:30;;;;;;;72.10;27.30;;;;;;;-5.91;100.00;102533.91;5182049;28;20030;-74
2021/12/22 03:03:27;;;;;;;63.10;27.20;;;;;;;-5.93;100.00;102542.66;5174403;28;20018;-74
2021/12/22 03:06:07;;;;;;;74.20;26.00;;;;;;;-5.93;100.00;102540.06;5170606;28;20031;-74
2021/12/22 03:08:39;;;;;;;64.85;26.40;;;;;;;-5.95;100.00;102547.91;5163045;28;20049;-74
2021/12/22 03:11:09;;;;;;;73.43;28.17;;;;;;;-5.96;100.00;102547.94;5182131;28;20501;-74
2021/12/22 03:13:40;;;;;;;70.25;27.20;;;;;;;-5.97;100.00;102549.72;5181881;28;20099;-74
2021/12/22 03:16:11;;;;;;;63.67;25.38;;;;;;;-5.98;100.00;102541.84;5181584;28;20300;-74
2021/12/22 03:18:42;;;;;;;58.40;24.48;;;;;;;-5.99;100.00;102551.44;5181663;28;20668;-74
2021/12/22 03:21:20;;;;;;;74.05;26.55;;;;;;;-5.97;100.00;102551.41;5182152;28;20033;-74
2021/12/22 03:23:53;;;;;;;68.43;26.40;;;;;;;-5.96;100.00;102563.63;5171604;28;20454;-74
2021/12/22 03:26:25;;;;;;;69.90;26.27;;;;;;;-5.97;100.00;102544.47;5163891;28;20030;-74
2021/12/22 03:28:55;;;;;;;74.28;24.88;;;;;;;-6.02;100.00;102554.13;5164374;28;20018;-74
2021/12/22 03:31:26;;;;;;;67.45;24.73;;;;;;;-6.03;100.00;102549.75;5163866;28;20032;-74
2021/12/22 03:33:56;;;;;;;69.70;26.52;;;;;;;-6.05;100.00;102554.16;5182029;28;20037;-74
2021/12/22 03:36:27;;;;;;;64.88;24.17;;;;;;;-6.03;100.00;102555.84;5181689;28;20064;-74
2021/12/22 03:38:57;;;;;;;66.68;25.48;;;;;;;-5.96;100.00;102555.78;5180195;28;20033;-74
2021/12/22 03:41:28;;;;;;;70.53;25.42;;;;;;;-5.93;100.00;102560.97;5179698;28;20022;-74
2021/12/22 03:43:58;;;;;;;69.32;24.25;;;;;;;-5.91;100.00;102559.22;5181526;28;20133;-74
2021/12/22 03:46:29;;;;;;;58.97;24.75;;;;;;;-5.93;100.00;102563.56;5181012;28;20084;-75
2021/12/22 03:49:00;;;;;;;63.97;25.90;;;;;;;-5.96;100.00;102558.41;5181425;28;20052;-74
2021/12/22 03:51:31;;;;;;;68.10;25.05;;;;;;;-6.01;100.00;102564.56;5181354;28;20080;-74
2021/12/22 03:54:01;;;;;;;60.20;24.40;;;;;;;-6.05;100.00;102555.00;5180974;28;20479;-74
2021/12/22 03:56:32;;;;;;;65.95;23.83;;;;;;;-6.07;100.00;102555.94;5181259;28;20022;-74
2021/12/22 03:59:04;;;;;;;62.03;23.85;;;;;;;-6.09;100.00;102552.44;5181429;28;20052;-74
2021/12/22 04:01:35;;;;;;;57.88;22.67;;;;;;;-6.13;100.00;102550.75;5181473;28;20029;-74
2021/12/22 04:04:12;;;;;;;65.25;24.55;;;;;;;-6.16;100.00;102553.41;5180818;28;20026;-74
2021/12/22 04:06:45;;;;;;;64.55;23.48;;;;;;;-6.21;100.00;102550.84;5179161;28;20077;-74
2021/12/22 04:09:16;;;;;;;66.45;23.50;;;;;;;-6.25;100.00;102546.53;5181039;28;20448;-74
2021/12/22 04:11:47;;;;;;;59.60;23.20;;;;;;;-6.27;100.00;102549.19;5163599;28;20022;-74
2021/12/22 04:14:17;;;;;;;54.50;22.13;;;;;;;-6.27;100.00;102550.94;5180851;28;20033;-74
2021/12/22 04:16:48;;;;;;;65.50;22.83;;;;;;;-6.30;100.00;102548.34;5180839;28;20477;-74
2021/12/22 04:19:18;;;;;;;54.53;23.88;;;;;;;-6.31;100.00;102538.78;5162959;28;20036;-74
2021/12/22 04:21:49;;;;;;;62.60;23.90;;;;;;;-6.33;100.00;102541.38;5180646;28;20030;-74
2021/12/22 04:24:22;;;;;;;63.38;24.15;;;;;;;-6.34;100.00;102539.66;5180415;28;20316;-74
2021/12/22 04:26:52;;;;;;;59.85;23.42;;;;;;;-6.33;100.00;102545.75;5163814;28;20029;-74
2021/12/22 04:29:23;;;;;;;60.15;23.25;;;;;;;-6.35;100.00;102540.56;5180590;28;20021;-74
2021/12/22 04:31:53;;;;;;;61.70;23.88;;;;;;;-6.34;100.00;102544.03;5180444;28;20022;-74
2021/12/22 04:34:24;;;;;;;56.92;23.42;;;;;;;-6.36;100.00;102546.66;5180103;28;20486;-74
2021/12/22 04:36:54;;;;;;;61.70;23.73;;;;;;;-6.37;100.00;102539.72;5180522;28;20049;-74
2021/12/22 04:39:25;;;;;;;66.72;24.13;;;;;;;-6.38;100.00;102543.19;5180259;28;20555;-74
2021/12/22 04:41:56;;;;;;;55.05;23.70;;;;;;;-6.38;100.00;102540.56;5162559;28;20014;-74
2021/12/22 04:44:26;;;;;;;52.63;22.65;;;;;;;-6.38;100.00;102539.72;5179804;28;20030;-74
2021/12/22 04:46:59;;;;;;;61.97;23.85;;;;;;;-6.38;100.00;102537.09;5180223;28;20535;-74
2021/12/22 04:49:29;;;;;;;55.78;23.15;;;;;;;-6.39;100.00;102533.63;5180378;28;20033;-74
2021/12/22 04:52:01;;;;;;;62.03;23.13;;;;;;;-6.38;100.00;102532.75;5180059;28;20368;-74
2021/12/22 04:54:41;;;;;;;59.53;22.95;;;;;;;-6.40;100.00;102526.69;5162213;28;20414;-74
2021/12/22 04:57:12;;;;;;;61.30;23.88;;;;;;;-6.38;100.00;102531.88;5162936;28;20425;-75
2021/12/22 04:59:42;;;;;;;55.88;23.48;;;;;;;-6.39;100.00;102524.94;5162497;28;20083;-74
2021/12/22 05:02:13;;;;;;;60.95;24.75;;;;;;;-6.40;100.00;102526.69;5179990;28;20470;-74
2021/12/22 05:04:43;;;;;;;55.30;23.10;;;;;;;-6.40;100.00;102529.28;5179660;28;20536;-75
2021/12/22 05:07:14;;;;;;;56.40;23.20;;;;;;;-6.39;100.00;102522.31;5174707;28;20030;-74
2021/12/22 05:09:44;;;;;;;59.80;23.73;;;;;;;-6.39;100.00;102509.25;5177499;28;20080;-74
2021/12/22 05:12:15;;;;;;;66.32;23.65;;;;;;;-6.37;100.00;102517.97;5180428;28;20124;-74
2021/12/22 05:14:49;;;;;;;63.50;24.38;;;;;;;-6.36;100.00;102519.69;5184776;28;20112;-74
2021/12/22 05:17:27;;;;;;;50.83;21.08;;;;;;;-6.38;100.00;102519.69;5179977;28;20030;-74
2021/12/22 05:19:57;;;;;;;65.15;24.70;;;;;;;-6.40;100.00;102512.75;5180120;28;20394;-74
2021/12/22 05:22:28;;;;;;;57.72;23.17;;;;;;;-6.42;100.00;102515.41;5180104;28;20034;-74
2021/12/22 05:24:59;;;;;;;53.70;21.58;;;;;;;-6.44;100.00;102511.94;5162304;28;20036;-74
2021/12/22 05:27:30;;;;;;;56.50;22.15;;;;;;;-6.42;100.00;102504.09;5162456;28;20030;-74
2021/12/22 05:30:01;;;;;;;56.95;22.58;;;;;;;-6.44;100.00;102501.47;5179288;28;20517;-74
2021/12/22 05:32:33;;;;;;;63.33;23.48;;;;;;;-6.43;100.00;102503.19;5179790;28;20026;-74
2021/12/22 05:35:06;;;;;;;57.00;22.30;;;;;;;-6.40;100.00;102507.53;5179574;28;20413;-74
2021/12/22 05:37:38;;;;;;;53.60;22.63;;;;;;;-6.35;100.00;102508.34;5180429;28;20032;-74
2021/12/22 05:40:09;;;;;;;65.00;23.33;;;;;;;-6.33;100.00;102501.34;5179542;28;20398;-74
2021/12/22 05:42:39;;;;;;;54.95;23.45;;;;;;;-6.33;100.00;102499.59;5179853;28;20037;-74
2021/12/22 05:45:10;;;;;;;71.35;22.55;;;;;;;-6.33;100.00;102498.75;5179444;28;20026;-74
2021/12/22 05:47:40;;;;;;;62.25;23.15;;;;;;;-6.34;100.00;102497.88;5180276;28;20086;-74
2021/12/22 05:50:11;;;;;;;69.22;22.25;;;;;;;-6.34;100.00;102503.09;5179875;28;20050;-74
2021/12/22 05:52:41;;;;;;;57.60;21.63;;;;;;;-6.33;100.00;102504.81;5162283;28;20025;-74
2021/12/22 05:55:12;;;;;;;53.38;21.20;;;;;;;-6.32;100.00;102503.09;5179137;28;20182;-74
2021/12/22 05:57:43;;;;;;;54.65;22.15;;;;;;;-6.32;100.00;102498.75;5179659;28;20022;-74
2021/12/22 06:00:14;;;;;;;59.55;22.92;;;;;;;-6.31;100.00;102497.84;5179569;28;20026;-74
2021/12/22 06:02:45;;;;;;;57.08;21.70;;;;;;;-6.29;100.00;102500.44;5182415;28;20040;-74
2021/12/22 06:05:18;;;;;;;66.90;22.15;;;;;;;-6.30;100.00;102504.78;5182749;28;20025;-74
2021/12/22 06:07:48;;;;;;;56.45;21.40;;;;;;;-6.32;100.00;102505.72;5162982;28;20037;-74
2021/12/22 06:10:19;;;;;;;51.70;21.38;;;;;;;-6.32;100.00;102514.41;5179666;28;20026;-74
2021/12/22 06:12:50;;;;;;;59.95;21.75;;;;;;;-6.25;100.00;102517.81;5183329;28;20061;-74
2021/12/22 06:15:20;;;;;;;43.08;20.42;;;;;;;-6.16;100.00;102519.44;5182944;28;20021;-74
2021/12/22 06:17:54;;;;;;;62.67;22.20;;;;;;;-6.12;100.00;102518.53;5183055;28;20064;-73
2021/12/22 06:20:26;;;;;;;54.78;21.45;;;;;;;-6.12;100.00;102522.00;5165667;28;20034;-74
2021/12/22 06:22:57;;;;;;;53.92;20.48;;;;;;;-6.12;100.00;102515.94;5183609;28;20358;-74
2021/12/22 06:25:28;;;;;;;44.20;19.38;;;;;;;-6.16;100.00;102515.09;5182375;28;20025;-74
2021/12/22 06:27:59;;;;;;;58.35;23.23;;;;;;;-6.15;100.00;102523.78;5183112;28;20036;-74
2021/12/22 06:30:29;;;;;;;52.28;22.38;;;;;;;-6.22;100.00;102517.78;5182349;28;20050;-74
2021/12/22 06:33:00;;;;;;;50.75;21.55;;;;;;;-6.27;100.00;102509.13;5182994;28;20025;-74
2021/12/22 06:35:31;;;;;;;49.03;20.25;;;;;;;-6.32;100.00;102516.16;5182646;28;20029;-74
2021/12/22 06:38:01;;;;;;;50.22;20.02;;;;;;;-6.39;100.00;102515.34;5183021;28;20064;-74
2021/12/22 06:40:32;;;;;;;53.85;19.65;;;;;;;-6.44;100.00;102519.75;5182812;28;20046;-74
2021/12/22 06:43:02;;;;;;;56.70;21.40;;;;;;;-6.50;100.00;102517.22;5182247;28;20092;-74
2021/12/22 06:45:33;;;;;;;61.35;21.83;;;;;;;-6.53;100.00;102512.91;5182271;28;20247;-74
2021/12/22 06:48:04;;;;;;;61.55;20.77;;;;;;;-6.54;100.00;102505.94;5182778;28;20032;-74
2021/12/22 06:50:34;;;;;;;71.65;22.08;;;;;;;-6.54;100.00;102505.06;5182431;28;20037;-74
2021/12/22 06:53:05;;;;;;;50.60;21.02;;;;;;;-6.58;100.00;102493.78;5183000;28;20025;-74
2021/12/22 06:55:36;;;;;;;50.45;19.77;;;;;;;-6.59;100.00;102502.50;5182272;28;20284;-74
2021/12/22 06:58:06;;;;;;;52.92;20.75;;;;;;;-6.61;100.00;102503.44;5182542;28;20220;-75
2021/12/22 07:00:37;;;;;;;51.90;19.98;;;;;;;-6.64;100.00;102509.53;5148630;28;20077;-74
2021/12/22 07:03:07;;;;;;;56.53;21.63;;;;;;;-6.64;100.00;102513.88;5182155;28;20104;-74
2021/12/22 07:05:38;;;;;;;61.47;21.08;;;;;;;-6.63;100.00;102513.00;5181736;28;20053;-74
2021/12/22 07:08:08;;;;;;;57.63;20.48;;;;;;;-6.61;100.00;102509.50;5181878;28;20108;-75
2021/12/22 07:10:39;;;;;;;55.58;20.55;;;;;;;-6.63;100.00;102510.38;5178626;28;20029;-74
2021/12/22 07:13:10;;;;;;;55.30;21.42;;;;;;;-6.65;100.00;102509.56;5182258;28;20026;-74
2021/12/22 07:15:43;;;;;;;50.90;20.95;;;;;;;-6.69;100.00;102506.09;5181524;28;20128;-74
2021/12/22 07:18:13;;;;;;;55.88;21.58;;;;;;;-6.74;100.00;102500.06;5182280;28;20022;-74
2021/12/22 07:20:44;;;;;;;45.85;20.20;;;;;;;-6.76;100.00;102496.63;5181747;28;20022;-74
2021/12/22 07:23:15;;;;;;;47.60;20.08;;;;;;;-6.76;100.00;102512.28;5182211;28;20025;-74
2021/12/22 07:25:45;;;;;;;52.83;20.00;;;;;;;-6.78;100.00;102509.69;5163998;28;20459;-74
2021/12/22 07:28:16;;;;;;;57.22;21.63;;;;;;;-6.75;100.00;102508.78;5181887;28;20145;-74
2021/12/22 07:30:46;;;;;;;51.53;19.92;;;;;;;-6.75;100.00;102505.31;5181020;28;20371;-74
2021/12/22 07:33:18;;;;;;;54.00;21.63;;;;;;;-6.74;100.00;102507.91;5182691;28;20057;-74
2021/12/22 07:36:00;;;;;;;45.03;19.70;;;;;;;-6.74;100.00;102496.59;5181237;28;20108;-74
2021/12/22 07:39:00;;;;;;;53.90;22.35;;;;;;;-6.76;100.00;102509.66;5182055;28;20033;-74
2021/12/22 07:41:31;;;;;;;52.28;21.05;;;;;;;-6.75;100.00;102505.31;5176879;28;20084;-73
2021/12/22 07:44:01;;;;;;;49.00;20.95;;;;;;;-6.73;100.00;102511.38;5172806;28;20411;-72
2021/12/22 07:46:32;;;;;;;46.40;19.17;;;;;;;-6.66;100.00;102506.09;5177535;28;20121;-72
2021/12/22 07:49:02;;;;;;;53.97;19.77;;;;;;;-6.58;100.00;102492.94;5178553;28;21081;-72
2021/12/22 07:51:33;;;;;;;57.95;21.38;;;;;;;-6.50;100.00;102495.47;5165869;28;20026;-73
2021/12/22 07:54:04;;;;;;;56.47;21.63;;;;;;;-6.44;100.00;102503.22;5182150;28;20035;-73
2021/12/22 07:56:34;;;;;;;48.88;20.75;;;;;;;-6.40;100.00;102504.94;5180021;28;20053;-73
2021/12/22 07:59:06;;;;;;;54.55;19.85;;;;;;;-6.38;100.00;102493.56;5179475;28;20030;-73
2021/12/22 08:01:36;;;;;;;57.03;20.13;;;;;;;-6.31;100.00;102491.78;5191432;28;20018;-74
2021/12/22 08:04:07;;;;;;;44.90;18.98;;;;;;;-6.23;100.00;102489.03;5160852;28;20501;-73
2021/12/22 08:06:37;;;;;;;56.85;20.38;;;;;;;-6.16;100.00;102491.56;5178361;28;20026;-74
2021/12/22 08:09:08;;;;;;;47.13;20.17;;;;;;;-6.05;100.00;102488.81;5161771;28;20029;-74
2021/12/22 08:11:38;;;;;;;51.00;20.05;;;;;;;-5.97;100.00;102492.22;5178825;28;20036;-74
2021/12/22 08:14:09;;;;;;;46.13;19.65;;;;;;;-5.85;100.00;102498.97;5179007;28;20030;-74
2021/12/22 08:16:39;;;;;;;45.60;18.48;;;;;;;-5.75;100.00;102500.56;5178111;28;20026;-74
2021/12/22 08:19:10;;;;;;;42.42;20.25;;;;;;;-5.62;100.00;102498.63;5179006;28;20461;-74
2021/12/22 08:21:40;;;;;;;48.58;19.70;;;;;;;-5.38;100.00;102498.25;5178771;28;20394;-73
2021/12/22 08:24:11;;;;;;;45.03;18.55;;;;;;;-5.15;100.00;102507.50;5178004;28;20104;-74
2021/12/22 08:26:42;;;;;;;40.72;17.90;;;;;;;-4.99;100.00;102506.34;5178617;28;20101;-73
2021/12/22 08:29:12;;;;;;;45.03;18.75;;;;;;;-4.85;100.00;102506.97;5178720;28;20671;-73
2021/12/22 08:31:43;;;;;;;46.90;18.42;;;;;;;-4.65;100.00;102514.47;5178429;28;20022;-73
2021/12/22 08:34:22;;;;;;;46.88;17.63;;;;;;;-4.42;100.00;102516.66;5161053;28;20025;-74
2021/12/22 08:39:41;;;;;;;39.92;17.60;;;;;;;-3.59;100.00;102513.16;5178096;28;20030;-73
2021/12/22 08:42:12;;;;;;;40.08;16.92;;;;;;;-3.33;100.00;102514.31;5178550;28;20379;-73
2021/12/22 08:44:42;;;;;;;43.67;17.33;;;;;;;-3.22;100.00;102513.16;5173994;28;20038;-74
2021/12/22 08:47:13;;;;;;;39.78;17.73;;;;;;;-3.09;100.00;102518.13;5178011;28;20083;-74
2021/12/22 08:49:45;;;;;;;39.80;19.17;;;;;;;-3.08;100.00;102510.19;5178217;28;20021;-74
2021/12/22 08:52:16;;;;;;;38.80;17.15;;;;;;;-3.08;100.00;102514.56;5160485;28;20030;-74
2021/12/22 08:54:47;;;;;;;35.35;17.23;;;;;;;-3.13;100.00;102514.69;5178159;28;20029;-74
2021/12/22 08:57:17;;;;;;;38.45;18.02;;;;;;;-3.14;100.00;102511.19;5178494;28;20034;-74
2021/12/22 08:59:48;;;;;;;39.65;17.42;;;;;;;-3.10;100.00;102503.25;5178472;28;20605;-75
2021/12/22 09:02:18;;;;;;;43.33;18.65;;;;;;;-2.91;100.00;102499.28;5178061;28;20486;-73
2021/12/22 09:04:49;;;;;;;39.53;17.55;;;;;;;-2.56;100.00;102498.34;5177522;28;20033;-73
2021/12/22 09:07:19;;;;;;;42.25;18.13;;;;;;;-2.17;100.00;102498.09;5177749;28;20061;-73
2021/12/22 09:09:50;;;;;;;36.20;17.05;;;;;;;-1.78;100.00;102500.47;5175472;28;20037;-73
2021/12/22 09:12:20;;;;;;;32.92;15.93;;;;;;;-1.39;100.00;102501.88;5174978;28;20022;-73
2021/12/22 09:14:51;;;;;;;38.33;17.50;;;;;;;-1.09;100.00;102499.16;5176409;28;20026;-73
2021/12/22 09:17:21;;;;;;;45.25;19.48;;;;;;;-1.10;100.00;102487.75;5174882;28;20030;-74
2021/12/22 09:19:53;;;;;;;45.53;18.92;;;;;;;-1.10;100.00;102486.91;5142984;28;20030;-74
2021/12/22 09:22:24;;;;;;;41.50;18.42;;;;;;;-1.13;100.00;102476.44;5175380;28;20584;-74
2021/12/22 09:24:54;;;;;;;44.65;16.77;;;;;;;-1.03;100.00;102485.75;5157858;28;20022;-73
2021/12/22 09:27:25;;;;;;;45.97;18.38;;;;;;;-0.86;100.00;102479.91;5174791;28;20035;-74
2021/12/22 09:29:55;;;;;;;36.63;17.65;;;;;;;-0.87;100.00;102475.56;5175816;28;20046;-73
2021/12/22 09:32:26;;;;;;;37.63;18.33;;;;;;;-0.97;100.00;102477.66;5176109;28;20022;-74
2021/12/22 09:34:56;;;;;;;36.85;15.50;;;;;;;-1.05;100.00;102475.28;5175410;28;20401;-74
2021/12/22 09:37:27;;;;;;;38.08;16.42;;;;;;;-1.01;100.00;102473.38;5178484;28;20445;-74
2021/12/22 09:39:57;;;;;;;40.72;17.50;;;;;;;-0.91;100.00;102471.31;5160981;28;20115;-74
2021/12/22 09:42:28;;;;;;;36.70;16.70;;;;;;;-0.80;100.00;102475.31;5180448;28;20022;-74
2021/12/22 09:45:01;;;;;;;33.75;16.38;;;;;;;-0.56;100.00;102477.97;5179583;28;20024;-74
2021/12/22 09:47:47;;;;;;;39.10;16.70;;;;;;;-0.41;100.00;102471.28;5180045;28;20029;-74
2021/12/22 09:50:34;;;;;;;39.45;16.65;;;;;;;-0.18;100.00;102473.09;5161985;28;20027;-74
2021/12/22 09:53:05;;;;;;;38.70;17.00;;;;;;;0.05;100.00;102469.56;5179832;28;20592;-74
2021/12/22 09:55:36;;;;;;;35.83;15.68;;;;;;;-0.09;100.00;102463.06;5179401;28;20168;-74
2021/12/22 09:58:09;;;;;;;31.67;15.88;;;;;;;-0.31;100.00;102451.56;5179124;28;20022;-75
2021/12/22 10:00:41;;;;;;;40.85;15.85;;;;;;;-0.45;100.00;102448.56;5161540;28;20101;-74
2021/12/22 10:03:12;;;;;;;38.92;16.15;;;;;;;-0.48;100.00;102446.94;5179529;28;20041;-74
2021/12/22 10:05:44;;;;;;;38.78;17.08;;;;;;;-0.53;100.00;102452.38;5178962;28;20061;-74
2021/12/22 10:08:17;;;;;;;41.03;18.80;;;;;;;-0.54;100.00;102460.34;5179554;28;20034;-74
2021/12/22 10:10:59;;;;;;;45.13;17.33;;;;;;;-0.56;100.00;102463.00;5178977;28;20026;-74
2021/12/22 10:13:30;;;;;;;39.72;17.08;;;;;;;-0.36;100.00;102451.75;5178092;28;20846;-74
2021/12/22 10:16:11;;;;;;;38.88;17.42;;;;;;;-0.40;100.00;102452.78;5178687;28;20101;-74
2021/12/22 10:18:43;;;;;;;51.50;18.50;;;;;;;-0.38;100.00;102448.31;5178874;28;20540;-74
2021/12/22 10:21:18;;;;;;;36.13;17.70;;;;;;;-0.22;100.00;102453.00;5178260;28;20022;-74
2021/12/22 10:23:51;;;;;;;37.22;17.02;;;;;;;-0.14;100.00;102454.44;5177955;28;20199;-74
2021/12/22 10:26:25;;;;;;;36.67;15.55;;;;;;;0.03;100.00;102437.97;5179681;28;20532;-74
2021/12/22 10:28:59;;;;;;;38.58;17.52;;;;;;;0.20;100.00;102437.28;5179536;28;20034;-76
2021/12/22 10:31:47;;;;;;;36.93;15.47;;;;;;;0.34;100.00;102424.41;5179181;28;20061;-74
2021/12/22 10:34:18;;;;;;;33.90;15.13;;;;;;;0.39;100.00;102424.22;5178641;28;20113;-74
2021/12/22 10:36:51;;;;;;;37.40;14.68;;;;;;;0.43;100.00;102423.19;5178314;28;20516;-74
2021/12/22 10:39:26;;;;;;;29.52;14.10;;;;;;;0.37;100.00;102428.72;5178761;28;20641;-74
2021/12/22 10:42:16;;;;;;;33.97;16.38;;;;;;;0.56;100.00;102420.91;5178927;28;20026;-74
2021/12/22 10:44:47;;;;;;;29.92;14.90;;;;;;;0.67;100.00;102422.16;5178023;28;20029;-74
2021/12/22 10:47:32;;;;;;;29.08;14.32;;;;;;;0.71;100.00;102415.00;5177944;28;20047;-74
2021/12/22 10:50:06;;;;;;;34.03;15.43;;;;;;;0.90;100.00;102423.81;5162884;28;20026;-74
2021/12/22 10:52:37;;;;;;;30.33;14.63;;;;;;;0.91;100.00;102409.72;5179098;28;20030;-74
2021/12/22 10:55:26;;;;;;;31.08;14.02;;;;;;;0.99;100.00;102406.72;5160476;28;20045;-74
2021/12/22 10:57:57;;;;;;;29.70;14.07;;;;;;;1.07;100.00;102396.69;5178804;28;20149;-74
2021/12/22 11:00:27;;;;;;;33.42;14.05;;;;;;;0.90;100.00;102391.25;5177866;28;20105;-74
2021/12/22 11:03:16;;;;;;;35.47;14.70;;;;;;;0.81;100.00;102391.69;5178400;28;20192;-74
2021/12/22 11:05:48;;;;;;;30.90;13.82;;;;;;;0.78;100.00;102388.22;5176891;28;20747;-74
2021/12/22 11:08:22;;;;;;;35.75;15.30;;;;;;;0.80;100.00;102396.09;5178774;28;20022;-74
2021/12/22 11:10:53;;;;;;;31.50;15.10;;;;;;;0.81;100.00;102397.81;5178448;28;20117;-74
2021/12/22 11:13:24;;;;;;;34.28;14.95;;;;;;;0.87;100.00;102392.28;5177581;28;20535;-74
2021/12/22 11:15:55;;;;;;;28.40;14.05;;;;;;;0.92;100.00;102392.94;5177379;28;20030;-74
2021/12/22 11:18:41;;;;;;;30.98;14.25;;;;;;;0.90;100.00;102386.84;5178765;28;20755;-74
2021/12/22 11:21:21;;;;;;;31.23;13.20;;;;;;;0.92;100.00;102381.50;5178003;28;20678;-74
2021/12/22 11:23:51;;;;;;;28.83;12.65;;;;;;;0.91;100.00;102379.78;5178225;28;20026;-74
2021/12/22 11:26:22;;;;;;;34.47;13.95;;;;;;;0.90;100.00;102373.63;5176653;28;20557;-74
2021/12/22 11:28:52;;;;;;;27.02;12.73;;;;;;;0.93;100.00;102367.38;5178116;28;20029;-74
2021/12/22 11:31:23;;;;;;;31.17;12.75;;;;;;;1.02;100.00;102359.03;5177933;28;20026;-74
2021/12/22 11:33:54;;;;;;;28.75;13.25;;;;;;;1.09;100.00;102360.47;5178123;28;20030;-74
2021/12/22 11:36:25;;;;;;;23.52;12.23;;;;;;;1.24;100.00;102362.41;5177733;28;20517;-74
2021/12/22 11:38:56;;;;;;;28.17;12.88;;;;;;;1.28;100.00;102357.84;5177175;28;20121;-74